Meadows Field Bakersfield US
ICAO: KBFL
IATA: BFL
Category: Medium
Scheduled Services: No

Elevation: 510 ft
TransAlt. 18000 ft.

Airport Communications:
BAKERSFIELD APP:118.8
ATIS:118.6
CTAF:118.1
BAKERSFIELD DEP:126.45
GND:121.7
RANCHO RDO:122.45
BAKERSFIELD TWR:118.1
UNICOM:122.95

KBFL Zoom In..

If Map Doesn't Load, Click Here

Runways:

(A) RW 12L length 10855 ft width 150 ft
---- / hdg 121

(B) RW 12R length 7703 ft width 100 ft
---- / hdg 121

(C) RW 30L length 7703 ft width 100 ft
---- / hdg 301

(D) RW 30R length 10855 ft width 150 ft
ILS 111.90 / hdg 301

Location; KBFL
Day. 21 / Time. 15.54 Zulu
* Altimeter: 29.95
* Temperature: 23° c. 73.4°f.
* Wind from: 140° Speed 03 kn.
Dewpoint: 07° c.
Visibility: 10 Statute Miles.
Clouds: Clear (automated report).

KBFL 211554Z 14003KT 10SM CLR 23/07 A2995 RMK AO2 SLP137 T02330072


Wind From 140°
Speed 03 kn.

 
 
jpsmedia.com for Web Design worldairports.se 2018   terms of use